Time;durP1;ratioP1;P1;durP2;ratioP2;P2;SDS_P1;SDS_P2;PMS_P1;PMS_P2;Temp;Humidity;BMP_temperature;BMP_pressure;BME280_temperature;BME280_humidity;BME280_pressure;Samples;Min_cycle;Max_cycle;Signal;HPM_P1;HPM_P2
2023/04/27 00:00:09;;;;;;;5.53;2.97;;;;;;;7.32;75.26;100020.44;125084;1086;104235;-76
2023/04/27 00:02:58;;;;;;;5.40;3.30;;;;;;;7.32;75.19;100018.75;125047;1086;104216;-76
2023/04/27 00:05:27;;;;;;;5.87;2.80;;;;;;;7.32;75.21;100017.83;124975;1086;104196;-76
2023/04/27 00:07:55;;;;;;;6.60;3.20;;;;;;;7.32;75.33;100023.05;125041;1086;104391;-76
2023/04/27 00:10:24;;;;;;;6.70;3.10;;;;;;;7.32;75.40;100023.05;125042;1086;104360;-76
2023/04/27 00:12:52;;;;;;;7.10;2.90;;;;;;;7.29;75.25;100025.53;125063;1086;104254;-75
2023/04/27 00:15:21;;;;;;;9.37;3.07;;;;;;;7.28;75.33;100026.39;125044;1086;104231;-77
2023/04/27 00:17:50;;;;;;;7.55;3.00;;;;;;;7.27;75.29;100015.03;125031;1086;104767;-76
2023/04/27 00:20:19;;;;;;;8.17;2.93;;;;;;;7.27;74.81;100016.77;124928;1086;104389;-74
2023/04/27 00:22:48;;;;;;;8.23;3.20;;;;;;;7.24;75.06;100014.91;125012;1086;104363;-76
2023/04/27 00:25:17;;;;;;;7.87;3.23;;;;;;;7.24;75.24;100019.25;125033;1086;104366;-76
2023/04/27 00:27:45;;;;;;;10.73;3.77;;;;;;;7.25;74.93;100018.42;125026;1086;104155;-76
2023/04/27 00:30:14;;;;;;;6.97;3.00;;;;;;;7.25;75.07;100026.26;124979;1086;104366;-75
2023/04/27 00:32:43;;;;;;;4.77;3.10;;;;;;;7.24;74.83;100040.13;124848;1086;104263;-75
2023/04/27 00:35:12;;;;;;;11.27;3.40;;;;;;;7.24;75.03;100021.86;124869;1086;104377;-75
2023/04/27 00:37:40;;;;;;;7.57;3.10;;;;;;;7.18;74.53;100026.00;124982;1086;104316;-75
2023/04/27 00:40:11;;;;;;;6.73;3.13;;;;;;;7.21;74.89;100033.05;125041;1086;104350;-75
2023/04/27 00:42:39;;;;;;;9.07;3.30;;;;;;;7.24;74.89;100032.30;125162;1086;104373;-76
2023/04/27 00:45:10;;;;;;;7.60;3.17;;;;;;;7.21;74.74;100040.87;125052;1086;104267;-75
2023/04/27 00:47:39;;;;;;;5.03;3.07;;;;;;;7.22;74.85;100033.96;125407;1086;104239;-75
2023/04/27 00:50:10;;;;;;;7.57;3.10;;;;;;;7.20;74.71;100045.22;125082;1086;104194;-75
2023/04/27 00:52:40;;;;;;;10.53;3.10;;;;;;;7.18;74.64;100030.31;125088;1086;104228;-75
2023/04/27 00:55:10;;;;;;;9.07;3.03;;;;;;;7.20;74.65;100026.95;124899;1086;104402;-75
2023/04/27 00:57:42;;;;;;;6.80;3.20;;;;;;;7.24;75.07;100021.86;125060;1086;104331;-76
2023/04/27 01:00:14;;;;;;;6.03;3.00;;;;;;;7.24;74.72;100021.86;125029;1086;104357;-75
2023/04/27 01:02:43;;;;;;;7.67;3.40;;;;;;;7.25;74.97;100021.04;125120;1086;104244;-75
2023/04/27 01:05:12;;;;;;;6.93;3.23;;;;;;;7.22;74.82;100026.13;124992;1086;104436;-75
2023/04/27 01:07:41;;;;;;;5.75;3.25;;;;;;;7.22;74.50;100032.23;125207;1086;104376;-75
2023/04/27 01:10:10;;;;;;;8.23;3.30;;;;;;;7.20;74.86;100032.17;125018;1086;104362;-75
2023/04/27 01:12:39;;;;;;;7.27;3.27;;;;;;;7.20;74.86;100032.17;125046;1086;104244;-75
2023/04/27 01:15:11;;;;;;;8.30;3.30;;;;;;;7.22;74.93;100026.13;125096;1086;104240;-75
2023/04/27 01:17:41;;;;;;;8.27;3.20;;;;;;;7.23;74.59;100034.02;125319;1086;104258;-76
2023/04/27 01:20:11;;;;;;;5.35;3.20;;;;;;;7.23;74.84;100043.55;125296;1086;104341;-75
2023/04/27 01:22:40;;;;;;;7.23;3.00;;;;;;;7.18;74.77;100041.66;125250;1086;104491;-75
2023/04/27 01:25:11;;;;;;;6.73;3.03;;;;;;;7.20;74.75;100033.89;125120;1086;104771;-76
2023/04/27 01:27:40;;;;;;;8.60;3.43;;;;;;;7.20;74.66;100039.11;124954;1086;104331;-76
2023/04/27 01:30:09;;;;;;;7.27;3.27;;;;;;;7.18;74.43;100031.22;125242;1086;104376;-75
2023/04/27 01:32:38;;;;;;;7.20;3.07;;;;;;;7.18;74.48;100027.70;125131;1086;104360;-76
2023/04/27 01:35:08;;;;;;;4.95;2.70;;;;;;;7.16;74.65;100027.64;125016;1086;104341;-76
2023/04/27 01:37:36;;;;;;;8.00;3.17;;;;;;;7.17;74.53;100038.98;124848;1086;102067;-76
2023/04/27 01:40:08;;;;;;;10.47;3.43;;;;;;;7.16;74.84;100031.97;124997;1086;104238;-75
2023/04/27 01:42:37;;;;;;;9.30;3.43;;;;;;;7.14;74.53;100029.30;125131;1086;104235;-76
2023/04/27 01:45:08;;;;;;;9.37;3.40;;;;;;;7.16;74.70;100040.68;125393;1086;104292;-76
2023/04/27 01:47:36;;;;;;;9.10;3.70;;;;;;;7.16;74.53;100031.97;125100;1085;104283;-76
2023/04/27 01:50:07;;;;;;;8.00;3.37;;;;;;;7.14;74.58;100029.30;125074;1086;104187;-76
2023/04/27 01:52:35;;;;;;;6.00;3.20;;;;;;;7.12;74.76;100028.35;125116;1086;104231;-76
2023/04/27 01:55:05;;;;;;;11.07;3.50;;;;;;;7.11;74.41;100029.17;125049;1086;104238;-76
2023/04/27 01:57:34;;;;;;;11.85;3.40;;;;;;;7.08;74.60;100047.30;124960;1086;104352;-76
2023/04/27 02:00:04;;;;;;;9.83;3.60;;;;;;;7.07;74.65;100032.47;124835;1086;104347;-76
2023/04/27 02:02:49;;;;;;;12.10;3.60;;;;;;;7.07;74.57;100032.47;125095;1086;104688;-76
2023/04/27 02:05:18;;;;;;;9.20;3.40;;;;;;;7.03;74.79;100014.92;124817;1086;104306;-77
2023/04/27 02:07:48;;;;;;;11.80;3.53;;;;;;;7.03;74.80;100020.14;125077;1086;104279;-75
2023/04/27 02:10:16;;;;;;;9.37;3.60;;;;;;;7.02;74.80;100028.78;125080;1086;104385;-75
2023/04/27 02:12:46;;;;;;;9.63;4.17;;;;;;;6.98;75.11;100029.47;124965;1086;104283;-76
2023/04/27 02:15:15;;;;;;;10.73;4.00;;;;;;;7.00;74.84;100020.01;124821;1086;104309;-76
2023/04/27 02:17:44;;;;;;;8.70;3.47;;;;;;;6.96;75.03;100036.34;125109;1086;104206;-76
2023/04/27 02:20:14;;;;;;;7.93;3.53;;;;;;;6.94;74.91;100028.45;125107;1086;104363;-75
2023/04/27 02:22:43;;;;;;;8.43;3.80;;;;;;;6.93;75.22;100031.00;125080;1086;104383;-76
2023/04/27 02:25:13;;;;;;;8.47;3.40;;;;;;;6.92;75.17;100050.06;125109;1086;104366;-75
2023/04/27 02:27:42;;;;;;;7.57;3.37;;;;;;;6.92;75.18;100029.20;124847;1086;104363;-76
2023/04/27 02:30:12;;;;;;;11.23;3.40;;;;;;;6.90;75.31;100030.86;125299;1086;104252;-76
2023/04/27 02:32:41;;;;;;;12.20;3.80;;;;;;;6.90;75.50;100031.74;124987;1086;104235;-75
2023/04/27 02:35:10;;;;;;;7.90;3.10;;;;;;;6.89;75.56;100032.59;125022;1086;104277;-75
2023/04/27 02:37:39;;;;;;;12.85;4.00;;;;;;;6.84;75.15;100035.00;124808;1086;104378;-77
2023/04/27 02:40:10;;;;;;;6.55;3.40;;;;;;;6.81;75.66;100042.69;124958;1086;104456;-76
2023/04/27 02:42:38;;;;;;;14.27;4.23;;;;;;;6.78;75.66;100042.56;125313;1086;104255;-74
2023/04/27 02:45:09;;;;;;;13.90;3.67;;;;;;;6.74;75.92;100048.45;125041;1086;104295;-75
2023/04/27 02:47:38;;;;;;;9.13;3.70;;;;;;;6.72;76.00;100044.02;125098;1086;104229;-75
2023/04/27 02:50:08;;;;;;;9.23;3.60;;;;;;;6.72;75.90;100060.55;125006;1086;104356;-75
2023/04/27 02:52:37;;;;;;;7.97;3.60;;;;;;;6.68;75.77;100060.34;124980;1086;104405;-75
2023/04/27 02:55:07;;;;;;;11.00;3.73;;;;;;;6.65;76.05;100064.61;124924;1086;104346;-76
2023/04/27 02:57:35;;;;;;;12.33;4.00;;;;;;;6.64;75.95;100054.98;125076;1086;104235;-77
2023/04/27 03:00:07;;;;;;;9.57;3.60;;;;;;;6.61;76.08;100075.70;125164;1086;104301;-75
2023/04/27 03:02:36;;;;;;;14.23;4.30;;;;;;;6.61;76.04;100073.10;125177;1086;104210;-78
2023/04/27 03:05:06;;;;;;;9.00;3.80;;;;;;;6.58;76.68;100085.12;125165;1086;104411;-74
2023/04/27 03:07:35;;;;;;;10.67;3.40;;;;;;;6.56;76.13;100073.70;125298;1086;104353;-75
2023/04/27 03:10:06;;;;;;;14.47;3.83;;;;;;;6.53;76.02;100081.39;125260;1086;104235;-75
2023/04/27 03:12:35;;;;;;;10.05;3.60;;;;;;;6.51;75.93;100091.75;125208;1086;104270;-75
2023/04/27 03:15:04;;;;;;;14.63;4.07;;;;;;;6.48;76.34;100076.88;125088;1086;104245;-75
2023/04/27 03:17:32;;;;;;;10.55;3.60;;;;;;;6.47;76.54;100085.52;125166;1086;104292;-75
2023/04/27 03:20:03;;;;;;;12.73;4.00;;;;;;;6.45;76.44;100092.38;125080;1086;104246;-75
2023/04/27 03:22:31;;;;;;;13.65;4.20;;;;;;;6.42;76.50;100092.24;125195;1086;104300;-76
2023/04/27 03:25:00;;;;;;;10.70;4.23;;;;;;;6.39;76.55;100101.61;125309;1086;104350;-76
2023/04/27 03:27:29;;;;;;;11.70;4.13;;;;;;;6.36;76.84;100109.28;125155;1085;104216;-75
2023/04/27 03:29:57;;;;;;;12.50;4.50;;;;;;;6.38;76.34;100118.09;125163;1086;104263;-75
2023/04/27 03:32:26;;;;;;;14.90;4.23;;;;;;;6.35;76.54;100116.22;125196;1086;104266;-76
2023/04/27 03:34:55;;;;;;;9.47;3.90;;;;;;;6.34;76.76;100127.45;125196;1085;104258;-76
2023/04/27 03:37:24;;;;;;;9.43;4.00;;;;;;;6.33;76.87;100117.88;125358;1086;104481;-76
2023/04/27 03:39:55;;;;;;;12.60;3.90;;;;;;;6.32;76.65;100123.02;125102;1086;104309;-77
2023/04/27 03:42:23;;;;;;;14.93;4.03;;;;;;;6.30;76.66;100117.73;125205;1086;104318;-75
2023/04/27 03:44:53;;;;;;;9.80;4.20;;;;;;;6.29;76.85;100119.45;125296;1086;104244;-77
2023/04/27 03:47:21;;;;;;;13.73;4.27;;;;;;;6.30;76.63;100131.64;125530;1086;104290;-79
2023/04/27 03:49:50;;;;;;;13.50;4.20;;;;;;;6.33;76.62;100137.80;125526;1086;104331;-81
2023/04/27 03:52:19;;;;;;;13.43;4.47;;;;;;;6.33;76.64;100132.59;125720;1086;104302;-79
2023/04/27 03:54:47;;;;;;;15.17;4.20;;;;;;;6.33;76.83;100137.80;125753;1086;104302;-80
2023/04/27 03:57:17;;;;;;;14.27;4.23;;;;;;;6.36;76.76;100143.16;125757;1086;104377;-82
2023/04/27 03:59:46;;;;;;;13.07;4.43;;;;;;;6.34;76.71;100130.06;125798;1086;104187;-79
2023/04/27 04:02:15;;;;;;;11.27;4.10;;;;;;;6.37;76.86;100137.14;125599;1086;118204;-78
2023/04/27 04:04:43;;;;;;;13.00;4.00;;;;;;;6.38;76.63;100142.42;125525;1086;104392;-79
2023/04/27 04:07:12;;;;;;;9.93;4.20;;;;;;;6.37;76.84;100143.23;125809;1086;104366;-80
2023/04/27 04:09:42;;;;;;;14.37;4.33;;;;;;;6.40;76.75;100145.10;125585;1086;104165;-80
2023/04/27 04:12:10;;;;;;;14.43;4.20;;;;;;;6.43;76.89;100150.46;125530;1086;104276;-80
2023/04/27 04:14:41;;;;;;;16.27;4.73;;;;;;;6.45;76.63;100152.33;125432;1086;104340;-79
2023/04/27 04:17:12;;;;;;;15.23;4.23;;;;;;;6.50;76.75;100149.02;125972;1086;104328;-83
2023/04/27 04:19:44;;;;;;;13.93;4.27;;;;;;;6.54;76.79;100153.57;126237;1086;104261;-80
2023/04/27 04:22:12;;;;;;;11.77;4.37;;;;;;;6.58;76.60;100151.17;125741;1087;104357;-80
2023/04/27 04:24:41;;;;;;;13.13;4.50;;;;;;;6.63;76.43;100147.05;125625;1086;104261;-78
2023/04/27 04:27:09;;;;;;;9.20;4.10;;;;;;;6.64;76.29;100134.93;125558;1086;104285;-79
2023/04/27 04:29:38;;;;;;;13.37;4.30;;;;;;;6.70;76.59;100139.52;125600;1086;104379;-78
2023/04/27 04:32:08;;;;;;;13.53;4.73;;;;;;;6.72;76.71;100136.16;125612;1086;104274;-79
2023/04/27 04:34:38;;;;;;;14.43;3.93;;;;;;;6.76;76.38;100139.79;125646;1086;104187;-77
2023/04/27 04:37:07;;;;;;;14.73;4.37;;;;;;;6.82;76.55;100134.85;125730;1086;104283;-78
2023/04/27 04:39:36;;;;;;;16.03;4.80;;;;;;;6.89;76.46;100136.01;125463;1086;104319;-78
2023/04/27 04:42:04;;;;;;;13.13;4.53;;;;;;;6.93;76.33;100138.82;125506;1085;104373;-78
2023/04/27 04:44:35;;;;;;;12.63;4.43;;;;;;;6.96;75.69;100136.35;125373;1086;104188;-76
2023/04/27 04:47:05;;;;;;;11.37;4.03;;;;;;;6.99;76.15;100130.39;125269;1086;104231;-77
2023/04/27 04:49:33;;;;;;;11.00;4.03;;;;;;;7.02;75.41;100149.67;125254;1086;104343;-76
2023/04/27 04:52:03;;;;;;;13.40;4.43;;;;;;;7.06;74.90;100145.50;125416;1086;104404;-77
2023/04/27 04:54:31;;;;;;;19.30;4.60;;;;;;;7.06;75.69;100145.50;125476;1086;104394;-77
2023/04/27 04:57:01;;;;;;;12.53;4.47;;;;;;;7.06;75.26;100139.37;125958;1086;104216;-79
2023/04/27 04:59:33;;;;;;;13.43;4.33;;;;;;;7.07;74.81;100148.98;126168;1089;104280;-79
2023/04/27 05:02:02;;;;;;;14.90;4.37;;;;;;;7.05;74.69;100141.09;126147;1089;104242;-80
2023/04/27 05:04:30;;;;;;;12.03;4.20;;;;;;;7.10;74.77;100139.56;126110;1086;104196;-81
2023/04/27 05:06:59;;;;;;;15.00;4.77;;;;;;;7.15;75.25;100135.47;126171;1086;104296;-79
2023/04/27 05:09:28;;;;;;;8.93;4.20;;;;;;;7.22;74.71;100127.91;126152;1086;104231;-79
2023/04/27 05:11:56;;;;;;;12.87;4.77;;;;;;;7.28;75.12;100133.39;126250;1086;104216;-79
2023/04/27 05:14:25;;;;;;;15.23;4.57;;;;;;;7.34;75.14;100131.05;127210;1086;102033;-81
2023/04/27 05:16:53;;;;;;;18.40;5.00;;;;;;;7.35;73.45;100140.64;126355;1086;104331;-80
2023/04/27 05:19:24;;;;;;;9.53;3.23;;;;;;;7.34;73.25;100142.37;126276;1086;104277;-79
2023/04/27 05:21:52;;;;;;;10.17;3.73;;;;;;;7.35;72.66;100140.64;127338;1086;102241;-81
2023/04/27 05:24:21;;;;;;;13.97;4.40;;;;;;;7.37;73.22;100131.17;127579;1086;104158;-84
2023/04/27 05:26:50;;;;;;;16.00;4.10;;;;;;;7.44;73.19;100138.42;127276;1086;104252;-84
2023/04/27 05:29:19;;;;;;;9.73;3.80;;;;;;;7.50;72.60;100129.97;127669;1086;104408;-85
2023/04/27 05:31:48;;;;;;;13.67;4.23;;;;;;;7.60;72.05;100118.17;126847;1086;105675;-82
2023/04/27 05:34:17;;;;;;;11.07;4.00;;;;;;;7.73;72.17;100107.42;126860;1086;104226;-81
2023/04/27 05:36:56;;;;;;;18.37;4.90;;;;;;;7.83;71.69;100111.29;127536;1086;104222;-80
2023/04/27 05:40:14;;;;;;;;;;;;;;;;;;;;;
2023/04/27 05:43:00;;;;;;;13.90;4.47;;;;;;;7.92;71.20;100102.09;126492;1089;104165;-78
2023/04/27 05:45:30;;;;;;;15.20;4.73;;;;;;;7.98;70.01;100119.75;126726;1086;104398;-80
2023/04/27 05:47:59;;;;;;;11.03;3.80;;;;;;;8.03;69.20;100114.70;127113;1086;104232;-85
2023/04/27 05:50:42;;;;;;;13.97;4.27;;;;;;;8.07;68.71;100116.58;127901;1086;104156;-83
2023/04/27 05:53:47;;;;;;;13.88;4.78;;;;;;;8.20;69.57;100118.86;127788;1086;102442;-81
2023/04/27 05:56:19;;;;;;;14.07;4.70;;;;;;;8.34;69.81;100121.14;127691;1086;104439;-80
2023/04/27 05:58:49;;;;;;;12.80;4.00;;;;;;;8.43;69.01;100126.69;127738;1086;104155;-85
2023/04/27 06:01:32;;;;;;;17.20;4.47;;;;;;;8.51;68.65;100135.77;127628;1086;104136;-81
2023/04/27 06:04:06;;;;;;;12.55;3.80;;;;;;;8.55;66.36;100142.00;127484;1086;102412;-81
2023/04/27 06:06:36;;;;;;;;;;;;;;;8.60;67.02;100129.98;127135;1086;104234;-83
2023/04/27 06:09:06;;;;;;;12.03;3.80;;;;;;;8.65;65.78;100144.14;127983;1086;103893;-80
2023/04/27 06:11:49;;;;;;;12.47;4.00;;;;;;;8.73;65.83;100126.13;127860;1086;102068;-86
2023/04/27 06:14:32;;;;;;;11.77;3.77;;;;;;;8.86;66.17;100135.30;127388;1086;102089;-81
2023/04/27 06:17:12;;;;;;;11.43;3.80;;;;;;;8.94;65.16;100132.14;127731;1086;102107;-79
2023/04/27 06:19:44;;;;;;;13.40;3.60;;;;;;;8.90;63.59;100139.83;127571;1086;104194;-78
2023/04/27 06:22:24;;;;;;;12.97;3.77;;;;;;;8.97;65.67;100145.31;126684;1086;104267;-80
2023/04/27 06:25:13;;;;;;;13.77;4.17;;;;;;;9.00;63.82;100134.95;127857;1086;107799;-81
2023/04/27 06:27:46;;;;;;;16.03;4.13;;;;;;;9.14;65.40;100142.42;127688;1086;102447;-82
2023/04/27 06:30:21;;;;;;;12.07;4.13;;;;;;;9.21;64.40;100133.96;127706;1086;102406;-82
2023/04/27 06:32:53;;;;;;;14.53;4.93;;;;;;;9.23;64.05;100132.28;127510;1086;102770;-81
2023/04/27 06:35:23;;;;;;;14.77;4.00;;;;;;;9.35;64.37;100142.30;127679;1086;102039;-77
2023/04/27 06:37:52;;;;;;;13.70;3.70;;;;;;;9.43;63.92;100147.81;126252;1090;104228;-80
2023/04/27 06:40:30;;;;;;;12.97;4.27;;;;;;;9.51;64.16;100144.59;126712;1086;104225;-81
2023/04/27 06:45:55;;;;;;;10.10;3.93;;;;;;;9.45;62.93;100139.14;126440;1086;104202;-75
2023/04/27 06:48:41;;;;;;;17.47;4.07;;;;;;;9.43;62.03;100148.69;126584;1086;104318;-80
2023/04/27 06:51:24;;;;;;;12.23;3.63;;;;;;;9.56;62.95;100146.48;127761;1086;104306;-81
2023/04/27 06:53:59;;;;;;;12.00;3.60;;;;;;;9.67;61.69;100150.36;126930;1086;104216;-83
2023/04/27 06:56:45;;;;;;;9.40;3.50;;;;;;;9.80;60.23;100149.94;127614;1086;102176;-81
2023/04/27 06:59:31;;;;;;;13.30;3.80;;;;;;;10.01;62.35;100164.58;126767;1089;104165;-80
2023/04/27 07:02:15;;;;;;;15.93;4.40;;;;;;;10.06;62.33;100140.27;126380;1089;104213;-81
2023/04/27 07:04:50;;;;;;;14.53;4.37;;;;;;;10.12;61.60;100149.20;126626;1089;104209;-81
2023/04/27 07:07:25;;;;;;;14.10;4.05;;;;;;;10.16;61.64;100149.34;127542;1089;104295;-80
2023/04/27 07:10:03;;;;;;;13.47;3.83;;;;;;;10.18;62.05;100147.66;126424;1089;102119;-78
2023/04/27 07:12:36;;;;;;;7.80;3.50;;;;;;;10.15;60.28;100154.54;126405;1089;104367;-77
2023/04/27 07:15:12;;;;;;;13.97;4.13;;;;;;;10.06;59.95;100156.00;126240;1089;105741;-76
2023/04/27 07:17:45;;;;;;;14.07;4.10;;;;;;;9.96;59.71;100153.95;128215;1086;101962;-80
2023/04/27 07:20:15;;;;;;;12.93;3.93;;;;;;;10.02;61.46;100151.52;126640;1086;102582;-77
2023/04/27 07:22:44;;;;;;;10.40;3.50;;;;;;;10.26;60.94;100155.77;126682;1085;104226;-79
2023/04/27 07:25:25;;;;;;;14.40;4.00;;;;;;;10.46;59.09;100158.16;126609;1086;104373;-79
2023/04/27 07:27:55;;;;;;;10.63;3.40;;;;;;;10.64;59.79;100150.81;126603;1086;104365;-78
2023/04/27 07:30:29;;;;;;;11.70;3.70;;;;;;;10.73;56.53;100151.09;128138;1086;101932;-81
2023/04/27 07:32:59;;;;;;;7.27;3.10;;;;;;;10.71;55.66;100150.16;126887;1086;101995;-80
2023/04/27 07:35:36;;;;;;;11.57;3.90;;;;;;;10.60;57.39;100143.72;126801;1086;104299;-81
2023/04/27 07:38:50;;;;;;;9.97;3.53;;;;;;;10.50;56.30;100144.27;126875;1086;104098;-84
2023/04/27 07:41:29;;;;;;;9.60;3.00;;;;;;;10.46;55.29;100142.42;128451;1086;102776;-87
2023/04/27 07:44:04;;;;;;;9.03;3.20;;;;;;;10.68;56.27;100146.57;128777;1085;101654;-79
2023/04/27 07:46:36;;;;;;;8.53;3.20;;;;;;;10.84;55.38;100150.52;128596;1086;101747;-83
2023/04/27 07:49:14;;;;;;;11.90;3.37;;;;;;;11.17;54.30;100144.44;127914;1086;102194;-83
2023/04/27 07:51:51;;;;;;;11.97;3.33;;;;;;;11.22;51.58;100150.70;127808;1086;102156;-83
2023/04/27 07:54:29;;;;;;;11.90;3.20;;;;;;;11.29;53.67;100143.03;127557;1086;102446;-80
2023/04/27 07:57:16;;;;;;;7.77;2.87;;;;;;;11.15;53.69;100155.78;126950;1086;108456;-81
2023/04/27 08:00:34;;;;;;;10.40;3.07;;;;;;;10.99;52.27;100171.09;126994;1086;103021;-81
2023/04/27 08:03:30;;;;;;;11.37;3.53;;;;;;;11.21;52.73;100152.45;127320;1086;104360;-82
2023/04/27 08:06:03;;;;;;;11.13;3.87;;;;;;;11.52;53.65;100158.53;127344;1086;104350;-80
2023/04/27 08:08:59;;;;;;;11.70;3.70;;;;;;;11.61;52.99;100152.61;126826;1086;104344;-81
2023/04/27 08:11:34;;;;;;;13.73;3.30;;;;;;;11.44;50.88;100160.08;126654;1086;104247;-80
2023/04/27 08:14:13;;;;;;;8.00;2.90;;;;;;;11.33;50.51;100172.92;126537;1089;104216;-77
2023/04/27 08:16:51;;;;;;;11.90;3.40;;;;;;;11.31;50.43;100165.00;126790;1087;104404;-76
2023/04/27 08:19:30;;;;;;;11.60;3.53;;;;;;;11.43;51.78;100172.30;127868;1086;103051;-82
2023/04/27 08:22:03;;;;;;;10.63;3.33;;;;;;;11.50;52.21;100163.75;128087;1086;103515;-83
2023/04/27 08:24:46;;;;;;;7.93;3.20;;;;;;;11.41;52.17;100160.00;126905;1086;104200;-82
2023/04/27 08:27:24;;;;;;;;;;;;;;;11.41;51.24;100170.50;127088;1086;104226;-80
2023/04/27 08:30:08;;;;;;;12.63;3.47;;;;;;;11.56;52.31;100167.38;126934;1085;104146;-81
2023/04/27 08:32:38;;;;;;;9.23;3.30;;;;;;;11.79;50.05;100166.22;128217;1086;101755;-79
2023/04/27 08:35:10;;;;;;;13.43;3.30;;;;;;;11.89;50.01;100164.74;127059;1086;104447;-82
2023/04/27 08:37:39;;;;;;;10.70;2.90;;;;;;;11.93;49.08;100165.73;126582;1086;104302;-79
2023/04/27 08:40:12;;;;;;;10.23;3.07;;;;;;;11.93;49.07;100171.87;126397;1086;104347;-80
2023/04/27 08:42:56;;;;;;;11.40;3.30;;;;;;;11.89;49.52;100167.37;126675;1086;101968;-80
2023/04/27 08:45:25;;;;;;;9.85;3.20;;;;;;;11.90;49.71;100161.23;126655;1086;104353;-75
2023/04/27 08:47:56;;;;;;;13.97;3.60;;;;;;;11.85;51.12;100142.72;127042;1086;104140;-81
2023/04/27 08:50:30;;;;;;;10.03;2.93;;;;;;;11.62;49.59;100170.17;127009;1086;104165;-79
2023/04/27 08:53:03;;;;;;;9.33;3.00;;;;;;;11.61;49.51;100165.75;127078;1086;104204;-83
2023/04/27 08:55:33;;;;;;;11.70;3.60;;;;;;;11.57;50.54;100156.03;126783;1086;102529;-80
2023/04/27 08:58:04;;;;;;;10.57;3.20;;;;;;;11.54;50.14;100162.08;126723;1086;104223;-80
2023/04/27 09:00:43;;;;;;;14.85;3.50;;;;;;;11.47;50.03;100166.30;127070;1086;102982;-81
2023/04/27 09:03:44;;;;;;;;;;;;;;;;;;;;;
2023/04/27 09:06:43;;;;;;;13.13;3.30;;;;;;;11.19;50.24;100169.00;126844;1086;104242;-79
2023/04/27 09:09:34;;;;;;;10.03;3.43;;;;;;;11.25;50.60;100162.20;127196;1086;112010;-82
2023/04/27 09:12:19;;;;;;;14.30;3.80;;;;;;;11.31;51.12;100164.09;126619;1086;104245;-78
2023/04/27 09:15:14;;;;;;;;;;;;;;;;;;;;;
2023/04/27 09:17:45;;;;;;;12.23;3.30;;;;;;;11.47;50.80;100175.92;126848;1086;102280;-77
2023/04/27 09:20:36;;;;;;;11.57;3.57;;;;;;;11.48;51.39;100175.05;126692;1090;104155;-79
2023/04/27 09:23:32;;;;;;;10.17;3.20;;;;;;;11.37;50.54;100173.88;126136;1086;104367;-81
2023/04/27 09:26:38;;;;;;;16.60;4.00;;;;;;;11.18;51.29;100152.36;127683;1086;104161;-80
2023/04/27 09:32:58;;;;;;;;;;;;;;;;;;;;;
2023/04/27 09:35:35;;;;;;;10.80;3.80;;;;;;;11.08;51.48;100171.33;127874;1084;104172;-82
2023/04/27 09:38:08;;;;;;;14.53;3.60;;;;;;;11.04;51.12;100180.86;126756;1089;104121;-82
2023/04/27 09:40:51;;;;;;;12.00;4.00;;;;;;;11.05;51.43;100182.65;127345;1086;102323;-82
2023/04/27 09:43:27;;;;;;;13.33;3.87;;;;;;;11.22;51.88;100183.13;127515;1086;104281;-82
2023/04/27 09:46:05;;;;;;;14.07;3.70;;;;;;;11.28;51.44;100185.02;127014;1086;104394;-80
2023/04/27 09:48:41;;;;;;;15.83;3.77;;;;;;;11.32;51.28;100179.02;126628;1086;102873;-79
2023/04/27 09:51:15;;;;;;;10.97;3.63;;;;;;;11.30;51.73;100192.10;127109;1086;102315;-77
2023/04/27 09:53:52;;;;;;;13.03;3.70;;;;;;;11.28;51.97;100183.30;126559;1086;104457;-80
2023/04/27 09:56:35;;;;;;;13.47;3.60;;;;;;;11.25;51.70;100183.22;126372;1086;104737;-77
2023/04/27 09:59:36;;;;;;;15.07;3.47;;;;;;;11.19;51.51;100187.38;127096;1086;103060;-82
2023/04/27 10:02:25;;;;;;;13.40;3.40;;;;;;;11.20;51.46;100186.55;126875;1086;104060;-77
2023/04/27 10:05:25;;;;;;;9.77;3.57;;;;;;;11.24;51.43;100188.42;126402;1086;104254;-77
2023/04/27 10:07:54;;;;;;;7.10;2.93;;;;;;;11.18;51.09;100183.00;128416;1086;101732;-81
2023/04/27 10:10:46;;;;;;;10.07;3.30;;;;;;;11.13;51.05;100186.37;128016;1086;120380;-80
2023/04/27 10:13:37;;;;;;;8.03;3.57;;;;;;;11.09;51.36;100183.62;128320;1086;101844;-78
2023/04/27 10:16:26;;;;;;;12.90;3.30;;;;;;;11.07;51.08;100185.32;126668;1089;104155;-78
2023/04/27 10:19:07;;;;;;;;;;;;;;;11.03;51.29;100194.86;126981;1086;102223;-79
2023/04/27 10:21:52;;;;;;;9.47;3.30;;;;;;;11.03;51.46;100207.98;126980;1086;103213;-78
2023/04/27 10:24:39;;;;;;;15.43;3.77;;;;;;;11.02;51.58;100197.44;126676;1086;102613;-76
2023/04/27 10:27:12;;;;;;;10.20;3.37;;;;;;;10.94;51.18;100203.34;127108;1086;102341;-74
2023/04/27 10:29:44;;;;;;;14.60;3.67;;;;;;;10.94;51.28;100199.84;126620;1090;104223;-78
2023/04/27 10:32:22;;;;;;;9.30;3.00;;;;;;;10.99;51.07;100206.10;126951;1086;102517;-77
2023/04/27 10:35:02;;;;;;;10.77;3.70;;;;;;;11.02;50.41;100210.56;126967;1086;104242;-76
2023/04/27 10:37:46;;;;;;;10.93;4.33;;;;;;;11.06;51.20;100207.16;126685;1086;104286;-78
2023/04/27 10:40:17;;;;;;;13.63;3.80;;;;;;;11.10;51.62;100211.67;127010;1086;102648;-79
2023/04/27 10:42:49;;;;;;;9.37;3.23;;;;;;;11.08;51.51;100203.75;127273;1086;102503;-82
2023/04/27 10:45:40;;;;;;;9.70;3.83;;;;;;;11.10;51.34;100199.41;128457;1086;101711;-82
2023/04/27 10:48:18;;;;;;;11.67;3.40;;;;;;;11.11;51.25;100208.17;128185;1086;101845;-79
2023/04/27 10:51:02;;;;;;;14.60;3.33;;;;;;;11.30;51.88;100204.36;128559;1086;103543;-79
2023/04/27 10:53:35;;;;;;;9.90;3.30;;;;;;;11.40;50.85;100208.12;128543;1086;101981;-80
2023/04/27 10:56:15;;;;;;;17.80;3.60;;;;;;;11.32;50.43;100211.41;127842;1085;104231;-83
2023/04/27 10:59:03;;;;;;;11.57;3.53;;;;;;;11.42;51.41;100209.95;127273;1086;102058;-80
2023/04/27 11:01:34;;;;;;;12.17;3.50;;;;;;;11.49;50.73;100217.13;126959;1086;102748;-78
2023/04/27 11:04:07;;;;;;;10.83;3.47;;;;;;;11.65;50.93;100202.66;126575;1086;102906;-74
2023/04/27 11:06:55;;;;;;;9.30;3.10;;;;;;;11.66;49.20;100214.09;127088;1086;104364;-75
2023/04/27 11:09:27;;;;;;;9.53;3.53;;;;;;;11.74;49.46;100202.03;126786;1089;104271;-76
2023/04/27 11:11:56;;;;;;;8.70;4.00;;;;;;;11.82;49.85;100216.25;126895;1086;102136;-76
2023/04/27 11:14:27;;;;;;;12.37;3.17;;;;;;;11.88;50.01;100211.16;126907;1086;104363;-75
2023/04/27 11:16:57;;;;;;;13.97;3.80;;;;;;;11.82;49.25;100210.12;126764;1086;104437;-76
2023/04/27 11:19:31;;;;;;;9.17;3.07;;;;;;;11.73;49.13;100205.50;126964;1086;104833;-78
2023/04/27 11:22:08;;;;;;;11.88;3.40;;;;;;;11.72;49.49;100219.51;126437;1086;102234;-76
2023/04/27 11:24:49;;;;;;;9.77;3.27;;;;;;;11.83;49.72;100211.91;126787;1086;101922;-75
2023/04/27 11:27:21;;;;;;;11.17;3.60;;;;;;;11.96;49.42;100215.77;126522;1086;104342;-76
2023/04/27 11:29:50;;;;;;;9.30;3.23;;;;;;;12.01;49.06;100206.24;126644;1086;102878;-77
2023/04/27 11:32:25;;;;;;;10.13;2.83;;;;;;;11.94;48.08;100213.09;126380;1086;104204;-79
2023/04/27 11:34:56;;;;;;;9.57;3.13;;;;;;;11.89;48.15;100206.81;126981;1085;104191;-78
2023/04/27 11:37:28;;;;;;;9.90;3.10;;;;;;;11.95;48.10;100213.97;127153;1086;102137;-76
2023/04/27 11:40:01;;;;;;;9.67;3.47;;;;;;;11.93;48.15;100218.31;127069;1086;102414;-77
2023/04/27 11:42:30;;;;;;;13.77;4.37;;;;;;;11.93;48.74;100207.80;126846;1086;118678;-75
2023/04/27 11:45:01;;;;;;;10.57;2.83;;;;;;;11.94;48.45;100212.22;127186;1085;102932;-78
2023/04/27 11:47:34;;;;;;;9.80;3.27;;;;;;;11.99;48.73;100202.70;128527;1086;101837;-78
2023/04/27 11:50:04;;;;;;;9.23;3.40;;;;;;;11.99;49.12;100202.70;128543;1085;101585;-79
2023/04/27 11:52:38;;;;;;;8.48;3.12;;;;;;;11.96;48.46;100202.62;128493;1085;101208;-81